sensor_id;sensor_type;location;lat;lon;timestamp;P1;durP1;ratioP1;P2;durP2;ratioP2
51489;SDS011;57752;53.574;9.736;2022-11-23T00:04:23;63.25;;;23.80;;
51489;SDS011;57752;53.574;9.736;2022-11-23T00:09:24;58.88;;;26.33;;
51489;SDS011;57752;53.574;9.736;2022-11-23T00:14:24;58.97;;;23.67;;
51489;SDS011;57752;53.574;9.736;2022-11-23T00:19:25;57.55;;;24.10;;
51489;SDS011;57752;53.574;9.736;2022-11-23T00:24:25;59.40;;;25.67;;
51489;SDS011;57752;53.574;9.736;2022-11-23T00:29:25;60.30;;;24.13;;
51489;SDS011;57752;53.574;9.736;2022-11-23T00:34:26;56.03;;;22.08;;
51489;SDS011;57752;53.574;9.736;2022-11-23T00:39:26;52.63;;;24.25;;
51489;SDS011;57752;53.574;9.736;2022-11-23T00:44:26;58.53;;;23.08;;
51489;SDS011;57752;53.574;9.736;2022-11-23T00:49:26;55.67;;;24.15;;
51489;SDS011;57752;53.574;9.736;2022-11-23T00:54:26;56.35;;;24.92;;
51489;SDS011;57752;53.574;9.736;2022-11-23T00:59:27;55.55;;;25.52;;
51489;SDS011;57752;53.574;9.736;2022-11-23T01:04:28;55.53;;;23.35;;
51489;SDS011;57752;53.574;9.736;2022-11-23T01:09:28;55.95;;;24.63;;
51489;SDS011;57752;53.574;9.736;2022-11-23T01:14:28;51.17;;;23.55;;
51489;SDS011;57752;53.574;9.736;2022-11-23T01:19:28;53.33;;;24.00;;
51489;SDS011;57752;53.574;9.736;2022-11-23T01:24:29;61.13;;;24.38;;
51489;SDS011;57752;53.574;9.736;2022-11-23T01:29:29;47.47;;;22.83;;
51489;SDS011;57752;53.574;9.736;2022-11-23T01:34:29;51.90;;;23.15;;
51489;SDS011;57752;53.574;9.736;2022-11-23T01:39:29;56.75;;;23.58;;
51489;SDS011;57752;53.574;9.736;2022-11-23T01:44:31;54.78;;;23.73;;
51489;SDS011;57752;53.574;9.736;2022-11-23T01:49:35;56.30;;;23.92;;
51489;SDS011;57752;53.574;9.736;2022-11-23T01:54:40;52.95;;;23.58;;
51489;SDS011;57752;53.574;9.736;2022-11-23T01:59:42;57.30;;;25.77;;
51489;SDS011;57752;53.574;9.736;2022-11-23T02:04:42;55.28;;;24.23;;
51489;SDS011;57752;53.574;9.736;2022-11-23T02:09:45;54.53;;;23.95;;
51489;SDS011;57752;53.574;9.736;2022-11-23T02:14:45;51.50;;;22.80;;
51489;SDS011;57752;53.574;9.736;2022-11-23T02:29:48;59.75;;;23.30;;
51489;SDS011;57752;53.574;9.736;2022-11-23T02:34:49;60.97;;;23.67;;
51489;SDS011;57752;53.574;9.736;2022-11-23T02:39:50;56.85;;;22.63;;
51489;SDS011;57752;53.574;9.736;2022-11-23T02:44:58;63.80;;;25.08;;
51489;SDS011;57752;53.574;9.736;2022-11-23T02:49:59;56.40;;;24.95;;
51489;SDS011;57752;53.574;9.736;2022-11-23T02:54:59;56.10;;;23.38;;
51489;SDS011;57752;53.574;9.736;2022-11-23T02:59:59;57.90;;;24.88;;
51489;SDS011;57752;53.574;9.736;2022-11-23T03:05:00;61.40;;;26.35;;
51489;SDS011;57752;53.574;9.736;2022-11-23T03:10:00;54.85;;;24.33;;
51489;SDS011;57752;53.574;9.736;2022-11-23T03:15:00;51.90;;;23.52;;
51489;SDS011;57752;53.574;9.736;2022-11-23T03:20:00;55.25;;;24.00;;
51489;SDS011;57752;53.574;9.736;2022-11-23T03:25:00;58.13;;;24.05;;
51489;SDS011;57752;53.574;9.736;2022-11-23T03:30:00;53.10;;;22.60;;
51489;SDS011;57752;53.574;9.736;2022-11-23T03:35:01;57.08;;;23.98;;
51489;SDS011;57752;53.574;9.736;2022-11-23T03:40:02;52.70;;;23.48;;
51489;SDS011;57752;53.574;9.736;2022-11-23T03:45:02;52.03;;;24.17;;
51489;SDS011;57752;53.574;9.736;2022-11-23T03:50:02;49.53;;;24.05;;
51489;SDS011;57752;53.574;9.736;2022-11-23T03:55:02;60.05;;;23.70;;
51489;SDS011;57752;53.574;9.736;2022-11-23T04:00:03;54.28;;;22.38;;
51489;SDS011;57752;53.574;9.736;2022-11-23T04:05:03;49.47;;;22.42;;
51489;SDS011;57752;53.574;9.736;2022-11-23T04:10:04;52.67;;;22.93;;
51489;SDS011;57752;53.574;9.736;2022-11-23T04:15:04;56.97;;;23.35;;
51489;SDS011;57752;53.574;9.736;2022-11-23T04:20:05;47.92;;;20.45;;
51489;SDS011;57752;53.574;9.736;2022-11-23T04:25:05;51.33;;;23.58;;
51489;SDS011;57752;53.574;9.736;2022-11-23T04:30:05;49.63;;;23.10;;
51489;SDS011;57752;53.574;9.736;2022-11-23T04:35:06;52.05;;;21.05;;
51489;SDS011;57752;53.574;9.736;2022-11-23T04:40:06;46.72;;;21.13;;
51489;SDS011;57752;53.574;9.736;2022-11-23T04:45:07;51.53;;;21.33;;
51489;SDS011;57752;53.574;9.736;2022-11-23T04:50:07;51.67;;;21.90;;
51489;SDS011;57752;53.574;9.736;2022-11-23T04:55:07;55.40;;;22.08;;
51489;SDS011;57752;53.574;9.736;2022-11-23T05:00:07;51.83;;;22.98;;
51489;SDS011;57752;53.574;9.736;2022-11-23T05:05:08;57.85;;;23.08;;
51489;SDS011;57752;53.574;9.736;2022-11-23T05:10:08;54.30;;;22.73;;
51489;SDS011;57752;53.574;9.736;2022-11-23T05:15:09;54.17;;;23.27;;
51489;SDS011;57752;53.574;9.736;2022-11-23T05:20:11;57.57;;;24.47;;
51489;SDS011;57752;53.574;9.736;2022-11-23T05:25:11;52.97;;;22.17;;
51489;SDS011;57752;53.574;9.736;2022-11-23T05:30:11;51.85;;;23.13;;
51489;SDS011;57752;53.574;9.736;2022-11-23T05:35:12;50.15;;;22.98;;
51489;SDS011;57752;53.574;9.736;2022-11-23T05:40:13;56.38;;;22.85;;
51489;SDS011;57752;53.574;9.736;2022-11-23T05:45:13;54.92;;;21.80;;
51489;SDS011;57752;53.574;9.736;2022-11-23T05:50:13;51.35;;;22.10;;
51489;SDS011;57752;53.574;9.736;2022-11-23T05:55:14;53.25;;;22.88;;
51489;SDS011;57752;53.574;9.736;2022-11-23T06:00:14;49.13;;;21.85;;
51489;SDS011;57752;53.574;9.736;2022-11-23T06:05:14;54.67;;;21.00;;
51489;SDS011;57752;53.574;9.736;2022-11-23T06:10:15;56.28;;;23.08;;
51489;SDS011;57752;53.574;9.736;2022-11-23T06:15:15;47.97;;;21.23;;
51489;SDS011;57752;53.574;9.736;2022-11-23T06:20:15;54.30;;;22.50;;
51489;SDS011;57752;53.574;9.736;2022-11-23T06:25:15;55.28;;;23.75;;
51489;SDS011;57752;53.574;9.736;2022-11-23T06:30:15;52.00;;;23.20;;
51489;SDS011;57752;53.574;9.736;2022-11-23T06:35:16;54.50;;;22.88;;
51489;SDS011;57752;53.574;9.736;2022-11-23T06:40:16;52.90;;;22.23;;
51489;SDS011;57752;53.574;9.736;2022-11-23T06:45:16;54.10;;;23.90;;
51489;SDS011;57752;53.574;9.736;2022-11-23T06:50:16;49.50;;;22.17;;
51489;SDS011;57752;53.574;9.736;2022-11-23T06:55:17;46.95;;;21.88;;
51489;SDS011;57752;53.574;9.736;2022-11-23T07:00:17;57.03;;;23.70;;
51489;SDS011;57752;53.574;9.736;2022-11-23T07:05:18;49.08;;;22.08;;
51489;SDS011;57752;53.574;9.736;2022-11-23T07:10:18;53.38;;;22.20;;
51489;SDS011;57752;53.574;9.736;2022-11-23T07:15:19;55.00;;;22.42;;
51489;SDS011;57752;53.574;9.736;2022-11-23T07:20:19;51.80;;;22.35;;
51489;SDS011;57752;53.574;9.736;2022-11-23T07:25:19;46.55;;;20.20;;
51489;SDS011;57752;53.574;9.736;2022-11-23T07:30:19;49.10;;;21.75;;
51489;SDS011;57752;53.574;9.736;2022-11-23T07:35:19;44.47;;;20.48;;
51489;SDS011;57752;53.574;9.736;2022-11-23T07:40:20;45.72;;;19.38;;
51489;SDS011;57752;53.574;9.736;2022-11-23T07:45:20;41.08;;;18.25;;
51489;SDS011;57752;53.574;9.736;2022-11-23T07:50:21;40.00;;;19.90;;
51489;SDS011;57752;53.574;9.736;2022-11-23T07:55:22;42.38;;;17.73;;
51489;SDS011;57752;53.574;9.736;2022-11-23T08:00:22;42.50;;;17.38;;
51489;SDS011;57752;53.574;9.736;2022-11-23T08:05:23;43.15;;;17.48;;
51489;SDS011;57752;53.574;9.736;2022-11-23T08:10:23;41.50;;;16.65;;
51489;SDS011;57752;53.574;9.736;2022-11-23T08:15:24;41.03;;;17.90;;
51489;SDS011;57752;53.574;9.736;2022-11-23T08:20:24;35.20;;;16.70;;
51489;SDS011;57752;53.574;9.736;2022-11-23T08:25:25;38.63;;;16.40;;
51489;SDS011;57752;53.574;9.736;2022-11-23T08:30:26;38.28;;;15.02;;
51489;SDS011;57752;53.574;9.736;2022-11-23T08:35:27;32.85;;;15.15;;
51489;SDS011;57752;53.574;9.736;2022-11-23T08:40:27;31.75;;;14.20;;
51489;SDS011;57752;53.574;9.736;2022-11-23T08:45:27;37.17;;;15.18;;
51489;SDS011;57752;53.574;9.736;2022-11-23T08:50:27;34.58;;;14.95;;
51489;SDS011;57752;53.574;9.736;2022-11-23T08:55:28;34.30;;;13.02;;
51489;SDS011;57752;53.574;9.736;2022-11-23T09:00:29;29.08;;;12.93;;
51489;SDS011;57752;53.574;9.736;2022-11-23T09:05:29;28.92;;;12.45;;
51489;SDS011;57752;53.574;9.736;2022-11-23T09:10:29;26.85;;;12.00;;
51489;SDS011;57752;53.574;9.736;2022-11-23T09:15:29;23.27;;;11.57;;
51489;SDS011;57752;53.574;9.736;2022-11-23T09:20:30;28.33;;;12.07;;
51489;SDS011;57752;53.574;9.736;2022-11-23T09:25:30;25.95;;;12.27;;
51489;SDS011;57752;53.574;9.736;2022-11-23T09:30:30;25.92;;;12.05;;
51489;SDS011;57752;53.574;9.736;2022-11-23T09:35:30;23.33;;;11.75;;
51489;SDS011;57752;53.574;9.736;2022-11-23T09:40:31;30.20;;;12.63;;
51489;SDS011;57752;53.574;9.736;2022-11-23T09:55:41;25.73;;;10.32;;
51489;SDS011;57752;53.574;9.736;2022-11-23T10:00:45;22.35;;;9.77;;
51489;SDS011;57752;53.574;9.736;2022-11-23T10:05:49;20.05;;;9.30;;
51489;SDS011;57752;53.574;9.736;2022-11-23T10:11:19;21.95;;;9.65;;
51489;SDS011;57752;53.574;9.736;2022-11-23T10:21:37;15.88;;;5.93;;
51489;SDS011;57752;53.574;9.736;2022-11-23T10:26:41;15.30;;;6.07;;
51489;SDS011;57752;53.574;9.736;2022-11-23T10:31:44;16.77;;;5.53;;
51489;SDS011;57752;53.574;9.736;2022-11-23T10:41:46;12.88;;;4.88;;
51489;SDS011;57752;53.574;9.736;2022-11-23T10:46:46;16.00;;;4.95;;
51489;SDS011;57752;53.574;9.736;2022-11-23T10:51:59;12.93;;;4.75;;
51489;SDS011;57752;53.574;9.736;2022-11-23T10:57:19;14.02;;;4.65;;
51489;SDS011;57752;53.574;9.736;2022-11-23T11:02:20;16.42;;;5.38;;
51489;SDS011;57752;53.574;9.736;2022-11-23T11:07:25;15.30;;;4.70;;
51489;SDS011;57752;53.574;9.736;2022-11-23T11:12:27;11.10;;;4.03;;
51489;SDS011;57752;53.574;9.736;2022-11-23T11:17:29;14.30;;;4.33;;
51489;SDS011;57752;53.574;9.736;2022-11-23T11:22:33;15.82;;;4.10;;
51489;SDS011;57752;53.574;9.736;2022-11-23T11:27:34;10.95;;;3.83;;
51489;SDS011;57752;53.574;9.736;2022-11-23T11:37:39;13.98;;;4.38;;
51489;SDS011;57752;53.574;9.736;2022-11-23T11:42:41;11.68;;;3.92;;
51489;SDS011;57752;53.574;9.736;2022-11-23T11:47:44;11.98;;;3.83;;
51489;SDS011;57752;53.574;9.736;2022-11-23T11:52:46;13.00;;;3.88;;
51489;SDS011;57752;53.574;9.736;2022-11-23T11:57:48;12.52;;;4.00;;
51489;SDS011;57752;53.574;9.736;2022-11-23T12:08:00;13.10;;;4.13;;
51489;SDS011;57752;53.574;9.736;2022-11-23T12:13:01;11.18;;;4.10;;
51489;SDS011;57752;53.574;9.736;2022-11-23T12:23:38;16.80;;;4.72;;
51489;SDS011;57752;53.574;9.736;2022-11-23T12:34:07;12.05;;;3.60;;
51489;SDS011;57752;53.574;9.736;2022-11-23T12:39:22;12.93;;;3.83;;
51489;SDS011;57752;53.574;9.736;2022-11-23T12:49:50;13.40;;;4.00;;
51489;SDS011;57752;53.574;9.736;2022-11-23T12:54:59;12.32;;;3.40;;
51489;SDS011;57752;53.574;9.736;2022-11-23T13:00:05;16.27;;;3.83;;
51489;SDS011;57752;53.574;9.736;2022-11-23T13:05:10;11.93;;;3.80;;
51489;SDS011;57752;53.574;9.736;2022-11-23T13:10:28;11.20;;;3.53;;
51489;SDS011;57752;53.574;9.736;2022-11-23T13:26:32;13.45;;;3.90;;
51489;SDS011;57752;53.574;9.736;2022-11-23T13:51:33;12.27;;;3.80;;
51489;SDS011;57752;53.574;9.736;2022-11-23T14:06:53;15.68;;;4.20;;
51489;SDS011;57752;53.574;9.736;2022-11-23T14:12:00;13.80;;;4.03;;
51489;SDS011;57752;53.574;9.736;2022-11-23T14:22:12;13.65;;;4.35;;
51489;SDS011;57752;53.574;9.736;2022-11-23T14:27:26;13.50;;;4.55;;
51489;SDS011;57752;53.574;9.736;2022-11-23T14:32:39;11.90;;;4.35;;
51489;SDS011;57752;53.574;9.736;2022-11-23T14:37:46;14.30;;;4.30;;
51489;SDS011;57752;53.574;9.736;2022-11-23T14:42:51;12.45;;;4.40;;
51489;SDS011;57752;53.574;9.736;2022-11-23T14:47:51;13.30;;;4.55;;
51489;SDS011;57752;53.574;9.736;2022-11-23T14:52:52;13.73;;;4.63;;
51489;SDS011;57752;53.574;9.736;2022-11-23T14:57:57;14.60;;;4.80;;
51489;SDS011;57752;53.574;9.736;2022-11-23T15:03:00;14.85;;;4.85;;
51489;SDS011;57752;53.574;9.736;2022-11-23T15:13:26;15.68;;;4.90;;
51489;SDS011;57752;53.574;9.736;2022-11-23T15:18:27;17.88;;;5.55;;
51489;SDS011;57752;53.574;9.736;2022-11-23T15:23:31;18.40;;;5.63;;
51489;SDS011;57752;53.574;9.736;2022-11-23T15:28:33;14.73;;;5.28;;
51489;SDS011;57752;53.574;9.736;2022-11-23T15:33:34;16.67;;;5.38;;
51489;SDS011;57752;53.574;9.736;2022-11-23T15:38:35;15.00;;;5.75;;
51489;SDS011;57752;53.574;9.736;2022-11-23T15:43:36;19.70;;;6.20;;
51489;SDS011;57752;53.574;9.736;2022-11-23T15:48:50;18.08;;;6.38;;
51489;SDS011;57752;53.574;9.736;2022-11-23T15:53:50;16.38;;;7.05;;
51489;SDS011;57752;53.574;9.736;2022-11-23T15:58:51;17.13;;;7.13;;
51489;SDS011;57752;53.574;9.736;2022-11-23T16:03:53;18.65;;;7.20;;
51489;SDS011;57752;53.574;9.736;2022-11-23T16:08:59;20.17;;;7.93;;
51489;SDS011;57752;53.574;9.736;2022-11-23T16:19:29;21.60;;;9.30;;
51489;SDS011;57752;53.574;9.736;2022-11-23T16:24:32;21.65;;;9.70;;
51489;SDS011;57752;53.574;9.736;2022-11-23T16:29:34;20.10;;;9.20;;
51489;SDS011;57752;53.574;9.736;2022-11-23T16:34:35;23.67;;;9.88;;
51489;SDS011;57752;53.574;9.736;2022-11-23T16:39:35;24.38;;;10.43;;
51489;SDS011;57752;53.574;9.736;2022-11-23T16:44:35;19.80;;;9.25;;
51489;SDS011;57752;53.574;9.736;2022-11-23T16:49:35;27.30;;;11.65;;
51489;SDS011;57752;53.574;9.736;2022-11-23T16:54:35;23.02;;;10.73;;
51489;SDS011;57752;53.574;9.736;2022-11-23T16:59:36;21.20;;;10.52;;
51489;SDS011;57752;53.574;9.736;2022-11-23T17:04:36;29.63;;;12.45;;
51489;SDS011;57752;53.574;9.736;2022-11-23T17:09:36;28.10;;;12.25;;
51489;SDS011;57752;53.574;9.736;2022-11-23T17:14:37;24.70;;;11.75;;
51489;SDS011;57752;53.574;9.736;2022-11-23T17:19:38;24.73;;;11.70;;
51489;SDS011;57752;53.574;9.736;2022-11-23T17:24:38;27.73;;;12.77;;
51489;SDS011;57752;53.574;9.736;2022-11-23T17:29:38;21.73;;;12.20;;
51489;SDS011;57752;53.574;9.736;2022-11-23T17:34:39;26.30;;;12.25;;
51489;SDS011;57752;53.574;9.736;2022-11-23T17:39:39;26.77;;;13.48;;
51489;SDS011;57752;53.574;9.736;2022-11-23T17:44:39;31.75;;;12.40;;
51489;SDS011;57752;53.574;9.736;2022-11-23T17:49:39;29.48;;;12.73;;
51489;SDS011;57752;53.574;9.736;2022-11-23T17:54:39;27.08;;;13.02;;
51489;SDS011;57752;53.574;9.736;2022-11-23T17:59:40;29.25;;;12.68;;
51489;SDS011;57752;53.574;9.736;2022-11-23T18:04:40;28.27;;;12.15;;
51489;SDS011;57752;53.574;9.736;2022-11-23T18:09:40;27.55;;;13.20;;
51489;SDS011;57752;53.574;9.736;2022-11-23T18:14:40;23.67;;;12.15;;
51489;SDS011;57752;53.574;9.736;2022-11-23T18:19:41;24.95;;;11.48;;
51489;SDS011;57752;53.574;9.736;2022-11-23T18:24:41;26.77;;;12.30;;
51489;SDS011;57752;53.574;9.736;2022-11-23T18:29:41;27.90;;;13.18;;
51489;SDS011;57752;53.574;9.736;2022-11-23T18:34:41;32.85;;;13.30;;
51489;SDS011;57752;53.574;9.736;2022-11-23T18:39:41;27.50;;;11.50;;
51489;SDS011;57752;53.574;9.736;2022-11-23T18:44:41;29.40;;;12.98;;
51489;SDS011;57752;53.574;9.736;2022-11-23T18:49:42;28.48;;;12.55;;
51489;SDS011;57752;53.574;9.736;2022-11-23T18:54:42;29.35;;;13.27;;
51489;SDS011;57752;53.574;9.736;2022-11-23T18:59:42;29.88;;;13.95;;
51489;SDS011;57752;53.574;9.736;2022-11-23T19:04:42;22.67;;;11.30;;
51489;SDS011;57752;53.574;9.736;2022-11-23T19:09:42;28.27;;;13.02;;
51489;SDS011;57752;53.574;9.736;2022-11-23T19:14:42;23.65;;;12.00;;
51489;SDS011;57752;53.574;9.736;2022-11-23T19:19:48;30.55;;;12.85;;
51489;SDS011;57752;53.574;9.736;2022-11-23T19:24:48;31.98;;;13.35;;
51489;SDS011;57752;53.574;9.736;2022-11-23T19:29:48;23.30;;;11.82;;
51489;SDS011;57752;53.574;9.736;2022-11-23T19:34:49;28.35;;;12.98;;
51489;SDS011;57752;53.574;9.736;2022-11-23T19:39:49;28.42;;;13.57;;
51489;SDS011;57752;53.574;9.736;2022-11-23T19:44:49;28.63;;;13.07;;
51489;SDS011;57752;53.574;9.736;2022-11-23T19:49:49;27.33;;;13.52;;
51489;SDS011;57752;53.574;9.736;2022-11-23T19:54:49;32.30;;;12.75;;
51489;SDS011;57752;53.574;9.736;2022-11-23T19:59:49;30.73;;;13.60;;
51489;SDS011;57752;53.574;9.736;2022-11-23T20:04:50;27.20;;;12.95;;
51489;SDS011;57752;53.574;9.736;2022-11-23T20:09:50;30.90;;;13.10;;
51489;SDS011;57752;53.574;9.736;2022-11-23T20:14:52;27.65;;;13.20;;
51489;SDS011;57752;53.574;9.736;2022-11-23T20:19:52;25.77;;;11.70;;
51489;SDS011;57752;53.574;9.736;2022-11-23T20:24:52;30.25;;;11.93;;
51489;SDS011;57752;53.574;9.736;2022-11-23T20:29:52;27.27;;;12.70;;
51489;SDS011;57752;53.574;9.736;2022-11-23T20:34:52;25.33;;;11.57;;
51489;SDS011;57752;53.574;9.736;2022-11-23T20:39:53;28.20;;;12.40;;
51489;SDS011;57752;53.574;9.736;2022-11-23T20:44:53;27.42;;;10.73;;
51489;SDS011;57752;53.574;9.736;2022-11-23T20:49:53;23.90;;;11.18;;
51489;SDS011;57752;53.574;9.736;2022-11-23T20:54:53;22.33;;;10.60;;
51489;SDS011;57752;53.574;9.736;2022-11-23T20:59:53;24.10;;;10.50;;
51489;SDS011;57752;53.574;9.736;2022-11-23T21:04:54;22.85;;;10.15;;
51489;SDS011;57752;53.574;9.736;2022-11-23T21:09:54;22.17;;;9.85;;
51489;SDS011;57752;53.574;9.736;2022-11-23T21:14:55;22.92;;;10.57;;
51489;SDS011;57752;53.574;9.736;2022-11-23T21:19:55;21.83;;;9.37;;
51489;SDS011;57752;53.574;9.736;2022-11-23T21:24:55;23.90;;;9.20;;
51489;SDS011;57752;53.574;9.736;2022-11-23T21:29:55;21.50;;;9.30;;
51489;SDS011;57752;53.574;9.736;2022-11-23T21:34:56;20.95;;;9.07;;
51489;SDS011;57752;53.574;9.736;2022-11-23T21:39:56;18.60;;;8.65;;
51489;SDS011;57752;53.574;9.736;2022-11-23T21:44:56;16.70;;;7.97;;
51489;SDS011;57752;53.574;9.736;2022-11-23T21:49:56;16.33;;;8.18;;
51489;SDS011;57752;53.574;9.736;2022-11-23T21:54:56;20.45;;;8.10;;
51489;SDS011;57752;53.574;9.736;2022-11-23T21:59:56;20.88;;;7.57;;
51489;SDS011;57752;53.574;9.736;2022-11-23T22:04:57;20.15;;;7.68;;
51489;SDS011;57752;53.574;9.736;2022-11-23T22:09:57;16.38;;;7.22;;
51489;SDS011;57752;53.574;9.736;2022-11-23T22:14:57;15.55;;;7.05;;
51489;SDS011;57752;53.574;9.736;2022-11-23T22:19:57;18.23;;;7.25;;
51489;SDS011;57752;53.574;9.736;2022-11-23T22:24:57;17.52;;;7.30;;
51489;SDS011;57752;53.574;9.736;2022-11-23T22:29:57;17.52;;;6.70;;
51489;SDS011;57752;53.574;9.736;2022-11-23T22:34:58;18.98;;;8.07;;
51489;SDS011;57752;53.574;9.736;2022-11-23T22:39:58;19.33;;;7.35;;
51489;SDS011;57752;53.574;9.736;2022-11-23T22:44:58;16.90;;;5.78;;
51489;SDS011;57752;53.574;9.736;2022-11-23T22:49:58;14.43;;;6.30;;
51489;SDS011;57752;53.574;9.736;2022-11-23T22:54:58;18.10;;;6.85;;
51489;SDS011;57752;53.574;9.736;2022-11-23T22:59:58;15.30;;;6.28;;
51489;SDS011;57752;53.574;9.736;2022-11-23T23:04:59;18.50;;;6.68;;
51489;SDS011;57752;53.574;9.736;2022-11-23T23:09:59;14.70;;;6.28;;
51489;SDS011;57752;53.574;9.736;2022-11-23T23:14:59;15.32;;;6.75;;
51489;SDS011;57752;53.574;9.736;2022-11-23T23:19:59;16.88;;;7.40;;
51489;SDS011;57752;53.574;9.736;2022-11-23T23:24:59;17.20;;;7.20;;
51489;SDS011;57752;53.574;9.736;2022-11-23T23:30:00;19.90;;;7.90;;
51489;SDS011;57752;53.574;9.736;2022-11-23T23:35:00;21.83;;;7.97;;
51489;SDS011;57752;53.574;9.736;2022-11-23T23:40:01;17.55;;;7.15;;
51489;SDS011;57752;53.574;9.736;2022-11-23T23:45:01;18.40;;;7.50;;
51489;SDS011;57752;53.574;9.736;2022-11-23T23:50:01;23.30;;;7.72;;
51489;SDS011;57752;53.574;9.736;2022-11-23T23:55:02;18.00;;;7.30;;
